Buck Creek, IN (47924)

6:12 AM EDT on September 19, 2014 (GMT -0400)
Pettit, IN 47905 | Change Station
CLOSE
Current Station
Personal Weather Station
Location: Lafayette, IN
Elevation: 682 ft
Nearby Weather Stations

Elev 682 ft 40.42 °N, 86.72 °W | Updated 14 minutes ago

Clear
Clear
48.6 °F
Feels Like 49 °F
N
0.0
Wind Variable Wind from East

Today
High -- | Low -- °F
--% Chance of Precip.
Yesterday
High -- | Low -- °F
Precip. -- in
7:31 AM 7:49 PM
Waning Crescent, 20% visible
Pressure 30.14 in
Visibility 10.0 miles
Clouds Clear
Windchill 49 °F
Dew Point 47 °F
Humidity 94%
Rainfall 0.00 in
Snow Depth Not available.
UV 0 out of 12
Pollen 6.10 out of 12
Air Quality Not available.
Flu Activity Not available.
METAR KLAF 190954Z AUTO 06004KT 10SM CLR 09/08 A3015 RMK AO2 SLP207 T00940078 $

More Conditions Fewer Conditions

Pressure 30.14 in
Visibility 10.0 miles
Clouds Clear
Windchill 49 °F
Dew Point 47 °F
Humidity 94%
Rainfall 0.00 in
Snow Depth Not available.
UV 0 out of 12
Pollen 6.10 out of 12
Air Quality Not available.
Flu Activity Not available.
METAR KLAF 190954Z AUTO 06004KT 10SM CLR 09/08 A3015 RMK AO2 SLP207 T00940078 $

More Conditions Fewer Conditions

10-Day Weather Forecast

Almanac

Astronomy

Sep. 19, 2014 Rise Set
Actual Time 7:31 AM EDT 7:49 PM EDT
Civil Twilight 7:04 AM EDT 8:16 PM EDT
Nautical Twilight 6:32 AM EDT 8:48 PM EDT
Astronomical Twilight 5:59 AM EDT 9:21 PM EDT
Moon 3:15 AM EDT 5:18 PM EDT
Length of Visible Light 13h 12m
Length of Day
12h 17m
Tomorrow will be 2m 39s shorter.
Waning Crescent, 20% of the Moon is Illuminated
Today
Waning Crescent
Sep 24
New
Oct 1
First Quarter
Oct 8
Full
Oct 15
Last Quarter

Today's Extremes

State Highs State Lows

Community

WunderPhotos

Upload Photos

1,754,583 photos uploaded!

Nearby

Snow Depth

Station Depth Elevation
No new snow has been reported.

Earthquake Activity

City Distance Mag. Time & Date
No recent earthquake activity has been reported nearby.
Minimum magnitude displayed is 2.5.

Coastal Water Temperatures

Place Temperature
No Stations Reporting

Nearby Weather Stations